Time;durP1;ratioP1;P1;durP2;ratioP2;P2;SDS_P1;SDS_P2;PMS_P1;PMS_P2;Temp;Humidity;BMP_temperature;BMP_pressure;BME280_temperature;BME280_humidity;BME280_pressure;Samples;Min_cycle;Max_cycle;Signal;HPM_P1;HPM_P2
2023/07/24 00:00:25;;;;;;;7.45;5.57;;;16.30;99.90;;;;;;10374055;28;20258;-77
2023/07/24 00:05:46;;;;;;;8.60;6.13;;;16.20;99.90;;;;;;10358946;28;20458;-84
2023/07/24 00:11:08;;;;;;;7.63;5.57;;;16.20;99.90;;;;;;10359966;28;20204;-78
2023/07/24 00:16:29;;;;;;;6.72;5.75;;;16.10;99.90;;;;;;10358766;28;20654;-80
2023/07/24 00:21:51;;;;;;;6.68;5.70;;;16.00;91.20;;;;;;10362091;28;20523;-77
2023/07/24 00:27:13;;;;;;;8.20;6.60;;;15.90;93.40;;;;;;10375957;28;20220;-82
2023/07/24 00:32:35;;;;;;;7.03;5.60;;;15.80;73.80;;;;;;10333659;28;20301;-80
2023/07/24 00:37:56;;;;;;;5.95;5.05;;;15.80;80.80;;;;;;10303414;28;20259;-76
2023/07/24 00:43:19;;;;;;;8.05;6.10;;;15.70;74.20;;;;;;10333725;28;20210;-78
2023/07/24 00:48:40;;;;;;;9.77;6.45;;;15.80;99.90;;;;;;10348646;28;20215;-79
2023/07/24 00:54:03;;;;;;;7.72;6.30;;;15.80;99.90;;;;;;10343078;28;20213;-77
2023/07/24 00:59:25;;;;;;;8.85;5.93;;;15.70;99.90;;;;;;10342648;28;20236;-84
2023/07/24 01:04:47;;;;;;;6.50;5.70;;;15.70;99.90;;;;;;10371189;28;20208;-79
2023/07/24 01:10:08;;;;;;;6.43;5.32;;;15.60;99.90;;;;;;10357423;28;20201;-77
2023/07/24 01:15:38;;;;;;;4.97;4.47;;;15.50;99.90;;;;;;10372184;28;20203;-83
2023/07/24 01:21:00;;;;;;;5.20;4.65;;;15.60;99.90;;;;;;10353904;28;20235;-78
2023/07/24 01:26:23;;;;;;;4.85;3.83;;;15.50;99.90;;;;;;10369515;28;20199;-86
2023/07/24 01:31:45;;;;;;;4.55;4.15;;;15.40;99.90;;;;;;10367787;28;20289;-82
2023/07/24 01:37:08;;;;;;;6.80;5.18;;;15.40;99.90;;;;;;10357899;28;20265;-81
2023/07/24 01:42:29;;;;;;;5.60;5.00;;;15.30;99.90;;;;;;10351315;28;20316;-82
2023/07/24 01:47:51;;;;;;;8.10;5.90;;;15.30;99.90;;;;;;10356016;28;20193;-78
2023/07/24 01:53:12;;;;;;;8.48;5.63;;;15.40;99.90;;;;;;10353712;28;20204;-78
2023/07/24 01:58:33;;;;;;;8.57;6.60;;;15.30;99.90;;;;;;10354581;28;20259;-81
2023/07/24 02:03:54;;;;;;;10.40;7.07;;;15.30;99.90;;;;;;10354137;28;20200;-79
2023/07/24 02:09:18;;;;;;;9.15;5.43;;;15.20;99.90;;;;;;10338880;28;20510;-83
2023/07/24 02:14:40;;;;;;;5.22;4.25;;;15.10;99.90;;;;;;10370376;28;20279;-77
2023/07/24 02:20:01;;;;;;;6.88;5.05;;;15.10;99.90;;;;;;10352777;28;20228;-77
2023/07/24 02:25:23;;;;;;;5.57;4.57;;;15.20;99.90;;;;;;10353310;28;20205;-78
2023/07/24 02:30:47;;;;;;;6.18;5.30;;;15.30;99.90;;;;;;10353631;28;20208;-78
2023/07/24 02:36:08;;;;;;;5.38;4.28;;;15.30;99.90;;;;;;10352064;28;20217;-78
2023/07/24 02:41:29;;;;;;;6.57;5.28;;;15.40;99.90;;;;;;10345223;28;20236;-82
2023/07/24 02:46:51;;;;;;;5.25;4.75;;;15.50;99.90;;;;;;10318893;28;20200;-79
2023/07/24 02:52:12;;;;;;;7.55;6.25;;;15.50;99.90;;;;;;10347733;28;20258;-82
2023/07/24 02:57:33;;;;;;;5.82;5.22;;;15.50;90.20;;;;;;10334158;28;20198;-80
2023/07/24 03:02:55;;;;;;;6.45;5.30;;;15.40;94.90;;;;;;10347655;28;20231;-85
2023/07/24 03:08:16;;;;;;;6.20;4.63;;;15.30;95.60;;;;;;10359705;28;20200;-77
2023/07/24 03:13:40;;;;;;;5.22;4.72;;;15.30;63.40;;;;;;10374628;28;20459;-83
2023/07/24 03:19:02;;;;;;;6.93;5.00;;;15.20;57.00;;;;;;10360306;28;20444;-79
2023/07/24 03:24:24;;;;;;;6.78;5.22;;;15.20;62.50;;;;;;10374170;28;20200;-79
2023/07/24 03:29:45;;;;;;;7.28;5.30;;;15.20;65.30;;;;;;10362394;28;20231;-77
2023/07/24 03:35:07;;;;;;;6.00;4.85;;;15.30;46.10;;;;;;10371822;28;20239;-77
2023/07/24 03:40:28;;;;;;;4.93;4.50;;;15.30;47.70;;;;;;10332107;28;20533;-81
2023/07/24 03:45:50;;;;;;;8.20;5.72;;;15.30;30.70;;;;;;10319013;28;20200;-84
2023/07/24 03:51:11;;;;;;;6.68;5.20;;;15.30;32.30;;;;;;10328765;28;20200;-78
2023/07/24 03:56:33;;;;;;;8.25;6.43;;;15.50;22.40;;;;;;10366826;28;20429;-80
2023/07/24 04:01:54;;;;;;;7.13;5.68;;;15.50;2.80;;;;;;10359071;28;20235;-80
2023/07/24 04:07:15;;;;;;;7.50;5.55;;;15.60;11.20;;;;;;10374604;28;20251;-80
2023/07/24 04:12:37;;;;;;;8.07;6.05;;;15.70;19.80;;;;;;10358187;28;20209;-83
2023/07/24 04:17:58;;;;;;;7.70;6.13;;;15.70;1.00;;;;;;10358456;28;20202;-81
2023/07/24 04:23:19;;;;;;;7.15;5.78;;;15.80;1.00;;;;;;10374045;28;20215;-83
2023/07/24 04:28:40;;;;;;;5.68;5.10;;;15.90;1.00;;;;;;10357736;28;20266;-82
2023/07/24 04:34:02;;;;;;;4.55;4.15;;;16.00;1.00;;;;;;10358144;28;20275;-77
2023/07/24 04:39:24;;;;;;;6.07;5.45;;;16.20;1.00;;;;;;10355131;28;20223;-79
2023/07/24 04:44:45;;;;;;;6.28;4.85;;;16.20;1.00;;;;;;10356271;28;20201;-77
2023/07/24 04:50:07;;;;;;;5.88;4.88;;;16.30;1.00;;;;;;10372924;28;20204;-79
2023/07/24 04:55:28;;;;;;;6.93;5.28;;;16.40;1.00;;;;;;10372773;28;20253;-77
2023/07/24 05:00:49;;;;;;;5.45;4.68;;;16.40;1.00;;;;;;10355751;28;20274;-77
2023/07/24 05:06:10;;;;;;;6.30;4.75;;;16.40;1.00;;;;;;10355949;28;20263;-81
2023/07/24 05:11:31;;;;;;;5.82;4.47;;;16.50;1.00;;;;;;10353835;28;20259;-80
2023/07/24 05:16:53;;;;;;;7.25;5.10;;;16.60;1.00;;;;;;10352095;28;20217;-77
2023/07/24 05:22:14;;;;;;;7.00;5.40;;;16.60;1.00;;;;;;10355601;28;20404;-77
2023/07/24 05:27:36;;;;;;;8.70;5.10;;;16.70;99.90;;;;;;10354211;28;20224;-77
2023/07/24 05:32:57;;;;;;;9.60;5.93;;;16.80;99.90;;;;;;10354710;28;20234;-78
2023/07/24 05:38:18;;;;;;;6.28;5.10;;;16.80;86.50;;;;;;10354927;28;20228;-77
2023/07/24 05:43:40;;;;;;;6.97;4.85;;;16.80;99.90;;;;;;10367404;28;20228;-77
2023/07/24 05:49:01;;;;;;;4.65;4.18;;;16.80;99.90;;;;;;10355367;28;20208;-76
2023/07/24 05:54:23;;;;;;;5.75;4.55;;;16.90;12.40;;;;;;10355178;28;20197;-76
2023/07/24 05:59:44;;;;;;;4.88;3.70;;;16.90;1.00;;;;;;10353684;28;20423;-76
2023/07/24 06:05:05;;;;;;;7.28;5.55;;;17.00;70.40;;;;;;10358628;28;20216;-75
2023/07/24 06:10:27;;;;;;;14.20;6.10;;;17.40;1.00;;;;;;10356093;28;20201;-75
2023/07/24 06:15:49;;;;;;;9.73;4.78;;;17.70;1.00;;;;;;10351641;28;20828;-77
2023/07/24 06:21:11;;;;;;;8.35;4.60;;;18.00;1.00;;;;;;10342904;28;20317;-75
2023/07/24 06:26:32;;;;;;;7.47;4.95;;;18.30;20.50;;;;;;10369768;28;20197;-78
2023/07/24 06:31:53;;;;;;;5.55;4.13;;;18.50;3.10;;;;;;10349399;28;20229;-78
2023/07/24 06:37:15;;;;;;;8.80;4.53;;;18.80;1.00;;;;;;10354178;28;20269;-75
2023/07/24 06:42:42;;;;;;;5.82;3.97;;;19.00;4.80;;;;;;10353323;28;20276;-75
2023/07/24 06:48:04;;;;;;;4.38;3.70;;;19.40;1.00;;;;;;10326769;28;20274;-79
2023/07/24 06:53:25;;;;;;;4.63;3.95;;;19.50;1.00;;;;;;10312794;28;20264;-77
2023/07/24 06:58:46;;;;;;;10.93;5.57;;;19.80;1.00;;;;;;10338931;28;20233;-78
2023/07/24 07:04:07;;;;;;;5.63;4.07;;;20.00;99.90;;;;;;10367023;28;20194;-85
2023/07/24 07:09:29;;;;;;;6.93;4.13;;;19.90;99.90;;;;;;10351994;28;20244;-76
2023/07/24 07:14:50;;;;;;;5.28;3.75;;;20.00;1.00;;;;;;10369826;28;20201;-78
2023/07/24 07:20:12;;;;;;;10.60;3.85;;;20.00;99.90;;;;;;10353604;28;20305;-79
2023/07/24 07:25:33;;;;;;;4.15;3.50;;;19.80;99.90;;;;;;10370286;28;20221;-85
2023/07/24 07:30:55;;;;;;;6.22;4.13;;;19.60;1.00;;;;;;10346606;28;20264;-77
2023/07/24 07:36:17;;;;;;;5.38;4.03;;;19.70;1.00;;;;;;10357355;28;20236;-82
2023/07/24 07:41:38;;;;;;;4.00;3.50;;;20.00;99.90;;;;;;10353921;28;20280;-88
2023/07/24 07:47:00;;;;;;;6.18;4.00;;;20.10;99.90;;;;;;10339637;28;20205;-89
2023/07/24 07:52:22;;;;;;;6.00;4.03;;;20.50;1.00;;;;;;10341251;28;20221;-82
2023/07/24 07:57:43;;;;;;;5.97;3.35;;;20.50;1.00;;;;;;10355311;28;20205;-79
2023/07/24 08:03:04;;;;;;;6.88;4.68;;;20.60;1.00;;;;;;10338373;28;20234;-81
2023/07/24 08:08:26;;;;;;;9.00;4.18;;;20.70;1.00;;;;;;10353368;28;20206;-76
2023/07/24 08:13:47;;;;;;;4.35;3.60;;;20.80;99.90;;;;;;10352127;28;20236;-78
2023/07/24 08:19:11;;;;;;;5.28;3.40;;;;;;;;;;10370025;28;20222;-78
2023/07/24 08:24:35;;;;;;;5.55;4.05;;;22.10;1.00;;;;;;10353708;28;20194;-81
2023/07/24 08:29:57;;;;;;;6.28;3.00;;;23.40;1.00;;;;;;10339349;28;20236;-83
2023/07/24 08:35:18;;;;;;;5.22;3.15;;;23.40;1.00;;;;;;10336309;28;20238;-84
2023/07/24 08:40:39;;;;;;;5.07;3.40;;;24.30;1.00;;;;;;10324551;28;20288;-82
2023/07/24 08:46:01;;;;;;;12.13;5.47;;;;;;;;;;10322486;28;20309;-84
2023/07/24 08:51:24;;;;;;;5.90;3.88;;;25.40;1.00;;;;;;10338470;28;20205;-78
2023/07/24 08:56:49;;;;;;;4.72;3.88;;;25.80;99.90;;;;;;10354623;28;20516;-79
2023/07/24 09:02:10;;;;;;;6.35;3.03;;;26.10;99.90;;;;;;10311114;28;20237;-81
2023/07/24 09:07:32;;;;;;;5.57;3.28;;;26.40;1.00;;;;;;10335711;28;20381;-81
2023/07/24 09:12:53;;;;;;;4.15;2.70;;;26.70;99.90;;;;;;10344369;28;20391;-84
2023/07/24 09:18:15;;;;;;;6.35;3.15;;;26.70;1.00;;;;;;10352981;28;20208;-79
2023/07/24 09:23:39;;;;;;;5.70;2.90;;;27.30;99.90;;;;;;10340994;28;20305;-85
2023/07/24 09:29:01;;;;;;;4.18;2.67;;;27.40;99.90;;;;;;10350513;28;20508;-83
2023/07/24 09:34:22;;;;;;;5.38;3.45;;;27.00;99.90;;;;;;10362894;28;20272;-83
2023/07/24 09:39:46;;;;;;;14.82;7.32;;;27.10;99.90;;;;;;10349541;28;20252;-80
2023/07/24 09:45:09;;;;;;;4.15;2.65;;;27.10;99.90;;;;;;10349954;28;20273;-85
2023/07/24 09:50:31;;;;;;;3.15;2.85;;;27.10;99.90;;;;;;10311573;28;20381;-80
2023/07/24 09:55:57;;;;;;;6.88;3.03;;;;;;;;;;10324112;28;20253;-80
2023/07/24 10:01:18;;;;;;;3.90;2.50;;;27.90;99.90;;;;;;10281693;28;20493;-79
2023/07/24 10:06:41;;;;;;;3.97;2.92;;;28.20;99.90;;;;;;10291440;28;20503;-80
2023/07/24 10:12:03;;;;;;;4.20;2.85;;;29.00;99.90;;;;;;10348717;28;20260;-80
2023/07/24 10:17:38;;;;;;;6.65;3.03;;;29.20;99.90;;;;;;10345204;28;20198;-81
2023/07/24 10:23:04;;;;;;;5.55;2.95;;;28.70;99.90;;;;;;10362496;28;20242;-80
2023/07/24 10:28:39;;;;;;;3.45;2.97;;;28.70;99.90;;;;;;10348344;28;20208;-81
2023/07/24 10:34:05;;;;;;;3.83;2.83;;;28.90;99.90;;;;;;10329567;28;20249;-90
2023/07/24 10:39:40;;;;;;;3.15;2.83;;;28.60;99.90;;;;;;10348867;28;20497;-81
2023/07/24 10:45:10;;;;;;;5.03;3.10;;;28.00;99.90;;;;;;10321541;28;20229;-80
2023/07/24 10:50:39;;;;;;;3.35;2.75;;;27.30;99.90;;;;;;10322980;28;20566;-84
2023/07/24 10:56:00;;;;;;;3.78;2.80;;;27.20;99.90;;;;;;10347136;28;20268;-88
2023/07/24 11:01:23;;;;;;;4.90;2.88;;;27.20;99.90;;;;;;10336016;28;20244;-79
2023/07/24 11:06:44;;;;;;;4.35;3.28;;;26.60;99.90;;;;;;10359241;28;20202;-80
2023/07/24 11:12:16;;;;;;;3.83;3.40;;;26.30;99.90;;;;;;10365823;28;20225;-82
2023/07/24 11:17:40;;;;;;;5.18;2.58;;;26.00;99.90;;;;;;10341034;28;20433;-80
2023/07/24 11:23:02;;;;;;;4.63;2.67;;;26.00;99.90;;;;;;10355974;28;20248;-81
2023/07/24 11:28:23;;;;;;;3.10;2.60;;;25.70;99.90;;;;;;10349743;28;20610;-83
2023/07/24 11:33:44;;;;;;;5.60;2.47;;;25.80;99.90;;;;;;10361727;28;20244;-79
2023/07/24 11:39:06;;;;;;;4.18;2.33;;;25.60;99.90;;;;;;10370638;28;20214;-82
2023/07/24 11:44:28;;;;;;;8.70;3.08;;;25.70;99.90;;;;;;10340965;28;20217;-78
2023/07/24 11:50:00;;;;;;;2.50;2.10;;;26.30;99.90;;;;;;10342959;28;20228;-78
2023/07/24 11:55:32;;;;;;;2.97;2.25;;;26.70;99.90;;;;;;10353847;28;20214;-83
2023/07/24 12:00:53;;;;;;;4.65;2.90;;;26.50;99.90;;;;;;10354468;28;20224;-91
2023/07/24 12:06:18;;;;;;;3.33;2.50;;;26.90;99.90;;;;;;10339877;28;20194;-81
2023/07/24 12:11:43;;;;;;;4.70;2.25;;;27.10;99.90;;;;;;10316737;28;20261;-78
2023/07/24 12:17:10;;;;;;;2.80;2.25;;;26.60;99.90;;;;;;10358388;28;20206;-79
2023/07/24 12:22:32;;;;;;;2.58;2.10;;;26.20;99.90;;;;;;10384476;28;20210;-81
2023/07/24 12:27:53;;;;;;;2.00;1.73;;;26.30;99.90;;;;;;10336584;28;20201;-83
2023/07/24 12:33:14;;;;;;;1.75;1.65;;;26.70;99.90;;;;;;10364640;28;20247;-79
2023/07/24 12:38:36;;;;;;;1.20;1.10;;;26.70;99.90;;;;;;10351813;28;20221;-80
2023/07/24 12:43:57;;;;;;;2.38;1.60;;;26.50;99.90;;;;;;10337443;28;20397;-80
2023/07/24 12:49:20;;;;;;;2.47;2.10;;;26.50;99.90;;;;;;10350996;28;20285;-79
2023/07/24 12:54:42;;;;;;;2.72;1.80;;;26.80;99.90;;;;;;10351862;28;20264;-81
2023/07/24 13:00:15;;;;;;;3.38;1.92;;;27.20;99.90;;;;;;10366025;28;20281;-80
2023/07/24 13:05:38;;;;;;;1.83;1.50;;;27.30;99.90;;;;;;10350060;28;20370;-80
2023/07/24 13:11:00;;;;;;;2.05;1.70;;;27.90;99.90;;;;;;10335878;28;20268;-83
2023/07/24 13:16:21;;;;;;;2.30;1.77;;;28.00;99.90;;;;;;10364938;28;20512;-82
2023/07/24 13:21:43;;;;;;;3.65;1.83;;;27.70;99.90;;;;;;10364168;28;20197;-81
2023/07/24 13:27:05;;;;;;;5.53;2.15;;;27.70;99.90;;;;;;10358132;28;20240;-78
2023/07/24 13:32:26;;;;;;;2.20;1.70;;;28.00;99.90;;;;;;10350147;28;20352;-80
2023/07/24 13:37:47;;;;;;;2.25;1.50;;;28.30;99.90;;;;;;10345457;28;20229;-80
2023/07/24 13:43:08;;;;;;;3.42;1.40;;;28.10;99.90;;;;;;10347359;28;20209;-81
2023/07/24 13:48:30;;;;;;;1.83;1.60;;;27.80;99.90;;;;;;10361313;28;20460;-80
2023/07/24 13:53:53;;;;;;;2.17;1.33;;;27.60;99.90;;;;;;10348695;28;20276;-81
2023/07/24 13:59:14;;;;;;;2.75;1.60;;;28.00;99.90;;;;;;10333928;28;20372;-82
2023/07/24 14:04:36;;;;;;;10.25;5.22;;;27.90;99.90;;;;;;10364893;28;20380;-80
2023/07/24 14:09:57;;;;;;;8.43;1.90;;;27.40;99.90;;;;;;10336589;28;20209;-88
2023/07/24 14:15:19;;;;;;;5.90;1.90;;;27.00;99.90;;;;;;10334036;28;20277;-80
2023/07/24 14:20:40;;;;;;;4.47;2.00;;;26.70;99.90;;;;;;10348211;28;20193;-81
2023/07/24 14:26:04;;;;;;;1.77;1.50;;;26.40;99.90;;;;;;10347347;28;20257;-80
2023/07/24 14:31:28;;;;;;;1.88;1.77;;;26.40;99.90;;;;;;10348091;28;20333;-79
2023/07/24 14:36:50;;;;;;;3.63;1.80;;;26.50;99.90;;;;;;10332932;28;20393;-80
2023/07/24 14:42:12;;;;;;;1.67;1.58;;;26.60;99.90;;;;;;10379537;28;20531;-78
2023/07/24 14:47:33;;;;;;;1.63;1.35;;;26.60;99.90;;;;;;10371907;28;20217;-86
2023/07/24 14:52:55;;;;;;;4.22;1.60;;;26.60;99.90;;;;;;10357308;28;20233;-85
2023/07/24 14:58:16;;;;;;;2.42;1.85;;;26.60;99.90;;;;;;10356956;28;20236;-82
2023/07/24 15:03:37;;;;;;;1.65;1.55;;;26.70;99.90;;;;;;10344092;28;20566;-81
2023/07/24 15:08:59;;;;;;;3.05;1.95;;;26.60;99.90;;;;;;10354473;28;20205;-82
2023/07/24 15:14:20;;;;;;;2.00;1.80;;;26.50;99.90;;;;;;10345709;28;20283;-80
2023/07/24 15:19:42;;;;;;;1.70;1.60;;;26.40;99.90;;;;;;10359256;28;20205;-78
2023/07/24 15:25:04;;;;;;;1.85;1.63;;;26.30;99.90;;;;;;10361368;28;20506;-77
2023/07/24 15:30:26;;;;;;;2.05;1.85;;;26.30;99.90;;;;;;10360898;28;20253;-77
2023/07/24 15:35:47;;;;;;;2.35;1.55;;;26.20;99.90;;;;;;10356784;28;20589;-78
2023/07/24 15:41:08;;;;;;;2.70;1.60;;;26.10;99.90;;;;;;10383775;28;20249;-77
2023/07/24 15:46:31;;;;;;;3.00;1.80;;;26.00;99.90;;;;;;10387633;28;20260;-77
2023/07/24 15:51:53;;;;;;;2.67;1.50;;;25.90;99.90;;;;;;10375167;28;20230;-78
2023/07/24 15:57:15;;;;;;;3.10;2.15;;;25.80;99.90;;;;;;10372838;28;20245;-79
2023/07/24 16:02:36;;;;;;;5.38;2.30;;;25.80;99.90;;;;;;10358567;28;20284;-82
2023/07/24 16:07:57;;;;;;;2.25;1.85;;;25.70;99.90;;;;;;10359680;28;20190;-79
2023/07/24 16:13:19;;;;;;;3.17;1.98;;;25.60;99.90;;;;;;10374527;28;20234;-77
2023/07/24 16:18:40;;;;;;;2.15;1.90;;;25.50;99.90;;;;;;10373476;28;20236;-77
2023/07/24 16:24:01;;;;;;;2.67;1.80;;;25.40;99.90;;;;;;10358079;28;20273;-78
2023/07/24 16:29:23;;;;;;;2.53;1.70;;;25.20;99.90;;;;;;10358179;28;20197;-77
2023/07/24 16:34:44;;;;;;;2.00;1.80;;;25.10;99.90;;;;;;10355314;28;20246;-77
2023/07/24 16:40:06;;;;;;;1.80;1.70;;;24.90;99.90;;;;;;10387544;28;20236;-77
2023/07/24 16:45:27;;;;;;;5.47;2.85;;;24.80;99.90;;;;;;10354674;28;20217;-77
2023/07/24 16:50:55;;;;;;;11.80;2.03;;;24.70;99.90;;;;;;10357899;28;20227;-77
2023/07/24 16:56:16;;;;;;;4.43;1.88;;;22.80;1.00;;;;;;10320742;28;20233;-77
2023/07/24 17:01:37;;;;;;;7.93;1.95;;;21.60;1.00;;;;;;10337216;28;20190;-76
2023/07/24 17:06:58;;;;;;;6.05;1.55;;;20.50;99.90;;;;;;10349941;28;20438;-77
2023/07/24 17:12:20;;;;;;;5.55;1.90;;;20.00;99.90;;;;;;10315745;28;20230;-76
2023/07/24 17:17:41;;;;;;;3.28;1.13;;;19.80;1.00;;;;;;10328504;28;20201;-77
2023/07/24 17:23:02;;;;;;;4.75;1.65;;;19.70;99.90;;;;;;10355585;28;20214;-79
2023/07/24 17:28:23;;;;;;;1.67;1.30;;;19.70;99.90;;;;;;10369632;28;20364;-77
2023/07/24 17:33:45;;;;;;;2.75;1.48;;;19.70;1.00;;;;;;10355875;28;20681;-76
2023/07/24 17:39:06;;;;;;;3.22;1.70;;;19.80;1.00;;;;;;10352628;28;20227;-79
2023/07/24 17:44:28;;;;;;;4.78;2.22;;;19.80;1.00;;;;;;10350548;28;20206;-78
2023/07/24 17:49:49;;;;;;;5.80;2.38;;;19.70;1.00;;;;;;10341206;28;20248;-79
2023/07/24 17:55:21;;;;;;;4.15;2.05;;;19.70;1.00;;;;;;10355422;28;20193;-78
2023/07/24 18:00:45;;;;;;;2.60;1.83;;;19.60;1.00;;;;;;10339847;28;20484;-78
2023/07/24 18:06:08;;;;;;;5.45;2.45;;;19.60;1.00;;;;;;10355136;28;20246;-77
2023/07/24 18:11:29;;;;;;;3.88;2.53;;;19.60;1.00;;;;;;10353999;28;20429;-80
2023/07/24 18:16:50;;;;;;;7.40;2.80;;;19.60;1.00;;;;;;10321708;28;20249;-80
2023/07/24 18:22:12;;;;;;;3.70;2.65;;;19.60;1.00;;;;;;10330041;28;20218;-79
2023/07/24 18:27:34;;;;;;;5.72;2.75;;;19.60;1.00;;;;;;10321207;28;20196;-77
2023/07/24 18:32:56;;;;;;;4.68;3.20;;;19.60;1.00;;;;;;10332536;28;20233;-77
2023/07/24 18:38:17;;;;;;;5.82;3.47;;;19.50;1.00;;;;;;10353984;28;20457;-78
2023/07/24 18:43:39;;;;;;;6.85;3.83;;;19.60;1.00;;;;;;10384910;28;20212;-78
2023/07/24 18:49:00;;;;;;;7.05;3.30;;;19.60;1.00;;;;;;10353405;28;20496;-79
2023/07/24 18:54:21;;;;;;;5.97;4.18;;;19.50;1.00;;;;;;10353332;28;20228;-80
2023/07/24 18:59:42;;;;;;;6.03;4.60;;;19.50;1.00;;;;;;10353070;28;20288;-80
2023/07/24 19:05:04;;;;;;;6.25;4.10;;;19.40;1.00;;;;;;10353910;28;20284;-79
2023/07/24 19:10:25;;;;;;;4.20;3.45;;;19.50;1.00;;;;;;10328660;28;20211;-78
2023/07/24 19:15:47;;;;;;;5.47;3.72;;;19.40;1.00;;;;;;10320302;28;20217;-78
2023/07/24 19:21:08;;;;;;;4.53;3.38;;;19.50;1.00;;;;;;10359771;28;20202;-79
2023/07/24 19:26:29;;;;;;;5.15;3.33;;;19.40;1.00;;;;;;10337173;28;20228;-79
2023/07/24 19:31:52;;;;;;;5.80;3.50;;;19.40;1.00;;;;;;10360224;28;20324;-78
2023/07/24 19:37:13;;;;;;;5.85;3.40;;;19.40;1.00;;;;;;10360731;28;20209;-79
2023/07/24 19:42:35;;;;;;;9.20;3.47;;;19.50;1.00;;;;;;10359882;28;20213;-77
2023/07/24 19:47:56;;;;;;;3.40;2.88;;;19.40;1.00;;;;;;10349575;28;20280;-77
2023/07/24 19:53:18;;;;;;;6.50;4.07;;;19.30;1.00;;;;;;10358336;28;20558;-78
2023/07/24 19:58:40;;;;;;;5.72;2.90;;;19.20;1.00;;;;;;10359263;28;20198;-79
2023/07/24 20:04:01;;;;;;;3.05;2.47;;;19.10;1.00;;;;;;10371660;28;20229;-77
2023/07/24 20:09:22;;;;;;;4.95;2.15;;;19.00;1.00;;;;;;10358968;28;20551;-76
2023/07/24 20:14:44;;;;;;;10.40;5.45;;;18.90;1.00;;;;;;10357552;28;20229;-77
2023/07/24 20:20:06;;;;;;;9.65;5.50;;;18.90;1.00;;;;;;10359239;28;20213;-76
2023/07/24 20:25:28;;;;;;;5.38;3.70;;;18.90;1.00;;;;;;10374347;28;20198;-77
2023/07/24 20:30:49;;;;;;;5.55;2.83;;;18.90;1.00;;;;;;10355510;28;20210;-77
2023/07/24 20:36:12;;;;;;;4.35;2.90;;;19.00;1.00;;;;;;10343764;28;20376;-77
2023/07/24 20:41:34;;;;;;;3.45;2.60;;;18.90;1.00;;;;;;10370233;28;20201;-77
2023/07/24 20:46:55;;;;;;;5.57;2.90;;;18.80;1.00;;;;;;10355132;28;20193;-77
2023/07/24 20:52:16;;;;;;;5.10;2.70;;;18.70;1.00;;;;;;10357113;28;20225;-78
2023/07/24 20:57:38;;;;;;;4.18;2.30;;;18.60;1.00;;;;;;10317852;28;20190;-79
2023/07/24 21:02:59;;;;;;;4.90;3.33;;;18.60;1.00;;;;;;10346150;28;20256;-79
2023/07/24 21:08:20;;;;;;;7.18;3.80;;;18.50;1.00;;;;;;10354535;28;20190;-77
2023/07/24 21:13:43;;;;;;;6.68;3.60;;;18.50;1.00;;;;;;10355917;28;20229;-80
2023/07/24 21:19:04;;;;;;;4.05;2.58;;;18.40;1.00;;;;;;10338470;28;20234;-77
2023/07/24 21:24:25;;;;;;;7.03;2.90;;;18.40;1.00;;;;;;10369029;28;20209;-77
2023/07/24 21:29:51;;;;;;;2.80;2.40;;;18.20;1.00;;;;;;10356721;28;20197;-76
2023/07/24 21:35:12;;;;;;;5.07;3.08;;;18.30;1.00;;;;;;10357523;28;20249;-77
2023/07/24 21:40:34;;;;;;;6.65;2.90;;;18.10;1.00;;;;;;10371844;28;20487;-77
2023/07/24 21:45:55;;;;;;;4.30;3.40;;;18.20;39.70;;;;;;10356243;28;20245;-76
2023/07/24 21:51:17;;;;;;;7.88;4.13;;;18.20;32.60;;;;;;10354297;28;20245;-77
2023/07/24 21:56:38;;;;;;;7.30;3.53;;;18.20;64.00;;;;;;10355227;28;20273;-78
2023/07/24 22:01:59;;;;;;;4.22;3.20;;;18.10;99.90;;;;;;10355923;28;20193;-77
2023/07/24 22:07:20;;;;;;;5.35;3.50;;;18.10;99.90;;;;;;10354578;28;20204;-76
2023/07/24 22:12:42;;;;;;;5.25;3.50;;;18.10;99.90;;;;;;10353373;28;20546;-76
2023/07/24 22:18:03;;;;;;;4.78;3.58;;;18.00;99.90;;;;;;10355121;28;20373;-78
2023/07/24 22:23:26;;;;;;;5.13;3.47;;;18.10;99.90;;;;;;10353733;28;20205;-77
2023/07/24 22:28:47;;;;;;;3.97;3.38;;;18.00;99.90;;;;;;10369908;28;20204;-76
2023/07/24 22:34:10;;;;;;;8.23;4.28;;;18.00;99.90;;;;;;10369312;28;20582;-77
2023/07/24 22:39:31;;;;;;;5.57;4.20;;;18.00;99.90;;;;;;10351770;28;20217;-77
2023/07/24 22:44:52;;;;;;;9.27;4.10;;;18.10;99.90;;;;;;10369610;28;20209;-76
2023/07/24 22:50:14;;;;;;;5.35;4.55;;;18.00;99.90;;;;;;10369511;28;20562;-76
2023/07/24 22:55:35;;;;;;;8.30;3.80;;;18.00;99.90;;;;;;10365918;28;20221;-77
2023/07/24 23:00:56;;;;;;;6.72;4.15;;;18.00;99.90;;;;;;10353877;28;20492;-79
2023/07/24 23:06:18;;;;;;;6.15;4.10;;;18.00;99.90;;;;;;10362166;28;20440;-77
2023/07/24 23:11:40;;;;;;;7.22;4.85;;;17.90;99.90;;;;;;10360730;28;20221;-76
2023/07/24 23:17:01;;;;;;;7.35;5.10;;;17.90;99.90;;;;;;10374733;28;20190;-78
2023/07/24 23:22:23;;;;;;;5.93;4.82;;;17.80;99.90;;;;;;10360666;28;20264;-77
2023/07/24 23:27:44;;;;;;;8.15;4.70;;;17.70;99.90;;;;;;10375184;28;20293;-77
2023/07/24 23:33:06;;;;;;;6.68;4.15;;;17.70;99.90;;;;;;10360941;28;20260;-76
2023/07/24 23:38:27;;;;;;;6.55;3.70;;;17.70;99.90;;;;;;10325430;28;20220;-76
2023/07/24 23:43:48;;;;;;;6.28;4.65;;;17.60;99.90;;;;;;10361147;28;20194;-77
2023/07/24 23:49:10;;;;;;;5.40;4.03;;;17.60;99.90;;;;;;10360105;28;20475;-77
2023/07/24 23:54:31;;;;;;;5.40;4.00;;;17.60;99.90;;;;;;10358217;28;20232;-76
2023/07/24 23:59:52;;;;;;;5.60;4.05;;;17.70;99.90;;;;;;10359174;28;20416;-77
